sensor_id;sensor_type;location;lat;lon;timestamp;pressure;altitude;pressure_sealevel;temperature;humidity
49044;BME280;34860;48.066;14.124;2023-04-04T00:01:04;97282.19;;;4.30;58.88
49044;BME280;34860;48.066;14.124;2023-04-04T00:03:52;97287.28;;;4.28;58.86
49044;BME280;34860;48.066;14.124;2023-04-04T00:06:41;97278.63;;;4.26;58.77
49044;BME280;34860;48.066;14.124;2023-04-04T00:09:32;97278.19;;;4.24;58.56
49044;BME280;34860;48.066;14.124;2023-04-04T00:12:20;97277.03;;;4.22;58.84
49044;BME280;34860;48.066;14.124;2023-04-04T00:15:15;97271.09;;;4.19;58.77
49044;BME280;34860;48.066;14.124;2023-04-04T00:18:03;97268.31;;;4.16;58.87
49044;BME280;34860;48.066;14.124;2023-04-04T00:20:51;97265.94;;;4.14;58.92
49044;BME280;34860;48.066;14.124;2023-04-04T00:23:39;97269.44;;;4.11;58.90
49044;BME280;34860;48.066;14.124;2023-04-04T00:26:29;97260.41;;;4.11;59.02
49044;BME280;34860;48.066;14.124;2023-04-04T00:29:19;97255.66;;;4.08;58.75
49044;BME280;34860;48.066;14.124;2023-04-04T00:32:07;97256.03;;;4.06;58.69
49044;BME280;34860;48.066;14.124;2023-04-04T00:34:56;97259.19;;;4.05;58.77
49044;BME280;34860;48.066;14.124;2023-04-04T00:37:48;97254.44;;;4.02;58.85
49044;BME280;34860;48.066;14.124;2023-04-04T00:40:40;97254.81;;;4.00;58.71
49044;BME280;34860;48.066;14.124;2023-04-04T00:43:34;97252.03;;;3.96;58.82
49044;BME280;34860;48.066;14.124;2023-04-04T00:46:23;97239.78;;;3.90;58.67
49044;BME280;34860;48.066;14.124;2023-04-04T00:49:13;97244.09;;;3.88;58.67
49044;BME280;34860;48.066;14.124;2023-04-04T00:52:00;97240.16;;;3.85;58.73
49044;BME280;34860;48.066;14.124;2023-04-04T00:54:49;97244.44;;;3.82;58.88
49044;BME280;34860;48.066;14.124;2023-04-04T00:57:37;97239.69;;;3.79;58.62
49044;BME280;34860;48.066;14.124;2023-04-04T01:00:27;97236.53;;;3.77;58.76
49044;BME280;34860;48.066;14.124;2023-04-04T01:03:15;97232.19;;;3.76;59.01
49044;BME280;34860;48.066;14.124;2023-04-04T01:06:03;97237.28;;;3.74;58.70
49044;BME280;34860;48.066;14.124;2023-04-04T01:08:53;97226.66;;;3.73;58.81
49044;BME280;34860;48.066;14.124;2023-04-04T01:11:45;97229.78;;;3.71;58.73
49044;BME280;34860;48.066;14.124;2023-04-04T01:14:36;97223.09;;;3.69;58.67
49044;BME280;34860;48.066;14.124;2023-04-04T01:17:27;97218.38;;;3.66;58.68
49044;BME280;34860;48.066;14.124;2023-04-04T01:20:49;97225.41;;;3.63;58.57
49044;BME280;34860;48.066;14.124;2023-04-04T01:23:48;97223.03;;;3.61;58.81
49044;BME280;34860;48.066;14.124;2023-04-04T01:26:44;97216.69;;;3.57;58.72
49044;BME280;34860;48.066;14.124;2023-04-04T01:29:40;97217.09;;;3.56;58.53
49044;BME280;34860;48.066;14.124;2023-04-04T01:32:35;97215.88;;;3.53;58.69
49044;BME280;34860;48.066;14.124;2023-04-04T01:35:29;97215.09;;;3.53;58.79
49044;BME280;34860;48.066;14.124;2023-04-04T01:38:26;97216.63;;;3.50;58.50
49044;BME280;34860;48.066;14.124;2023-04-04T01:41:16;97215.84;;;3.50;58.74
49044;BME280;34860;48.066;14.124;2023-04-04T01:44:12;97213.03;;;3.46;58.38
49044;BME280;34860;48.066;14.124;2023-04-04T01:47:04;97209.50;;;3.45;58.56
49044;BME280;34860;48.066;14.124;2023-04-04T01:49:56;97211.84;;;3.43;58.46
49044;BME280;34860;48.066;14.124;2023-04-04T01:53:15;97211.84;;;3.43;58.58
49044;BME280;34860;48.066;14.124;2023-04-04T01:56:13;97213.00;;;3.42;58.64
49044;BME280;34860;48.066;14.124;2023-04-04T01:59:12;97209.06;;;3.40;58.53
49044;BME280;34860;48.066;14.124;2023-04-04T02:02:02;97210.22;;;3.39;58.73
49044;BME280;34860;48.066;14.124;2023-04-04T02:04:50;97208.63;;;3.38;58.72
49044;BME280;34860;48.066;14.124;2023-04-04T02:07:47;97206.28;;;3.36;58.63
49044;BME280;34860;48.066;14.124;2023-04-04T02:10:47;97212.94;;;3.35;58.67
49044;BME280;34860;48.066;14.124;2023-04-04T02:13:35;97211.34;;;3.34;58.60
49044;BME280;34860;48.066;14.124;2023-04-04T02:16:29;97213.31;;;3.34;58.64
49044;BME280;34860;48.066;14.124;2023-04-04T02:19:17;97205.84;;;3.34;58.66
49044;BME280;34860;48.066;14.124;2023-04-04T02:22:08;97202.72;;;3.32;58.61
49044;BME280;34860;48.066;14.124;2023-04-04T02:24:58;97210.94;;;3.32;58.37
49044;BME280;34860;48.066;14.124;2023-04-04T02:27:48;97201.13;;;3.31;58.63
49044;BME280;34860;48.066;14.124;2023-04-04T02:30:39;97201.91;;;3.32;58.55
49044;BME280;34860;48.066;14.124;2023-04-04T02:33:29;97208.56;;;3.31;58.59
49044;BME280;34860;48.066;14.124;2023-04-04T02:36:27;97205.41;;;3.28;58.42
49044;BME280;34860;48.066;14.124;2023-04-04T02:39:20;97205.41;;;3.28;58.54
49044;BME280;34860;48.066;14.124;2023-04-04T02:42:14;97194.41;;;3.28;58.42
49044;BME280;34860;48.066;14.124;2023-04-04T02:45:03;97199.13;;;3.28;58.49
49044;BME280;34860;48.066;14.124;2023-04-04T02:47:51;97197.53;;;3.27;58.26
49044;BME280;34860;48.066;14.124;2023-04-04T02:50:47;97201.06;;;3.24;58.60
49044;BME280;34860;48.066;14.124;2023-04-04T02:53:35;97201.84;;;3.24;58.59
49044;BME280;34860;48.066;14.124;2023-04-04T02:56:37;97203.00;;;3.23;58.44
49044;BME280;34860;48.066;14.124;2023-04-04T02:59:25;97190.44;;;3.22;58.61
49044;BME280;34860;48.066;14.124;2023-04-04T03:02:15;97193.19;;;3.22;58.35
49044;BME280;34860;48.066;14.124;2023-04-04T03:05:06;97203.34;;;3.22;58.62
49044;BME280;34860;48.066;14.124;2023-04-04T03:07:56;97200.63;;;3.22;58.54
49044;BME280;34860;48.066;14.124;2023-04-04T03:10:45;97196.69;;;3.19;58.41
49044;BME280;34860;48.066;14.124;2023-04-04T03:13:34;97187.63;;;3.19;58.50
49044;BME280;34860;48.066;14.124;2023-04-04T03:16:22;97190.75;;;3.17;58.52
49044;BME280;34860;48.066;14.124;2023-04-04T03:19:12;97191.94;;;3.16;58.37
49044;BME280;34860;48.066;14.124;2023-04-04T03:22:00;97187.22;;;3.17;58.59
49044;BME280;34860;48.066;14.124;2023-04-04T03:28:48;97191.88;;;3.13;58.50
49044;BME280;34860;48.066;14.124;2023-04-04T03:32:05;97188.72;;;3.11;58.39
49044;BME280;34860;48.066;14.124;2023-04-04T03:35:01;97192.66;;;3.09;58.59
49044;BME280;34860;48.066;14.124;2023-04-04T03:37:49;97193.41;;;3.06;58.39
49044;BME280;34860;48.066;14.124;2023-04-04T03:40:39;97188.28;;;3.05;58.55
49044;BME280;34860;48.066;14.124;2023-04-04T03:43:31;97188.28;;;3.05;58.63
49044;BME280;34860;48.066;14.124;2023-04-04T03:46:19;97190.59;;;3.03;58.61
49044;BME280;34860;48.066;14.124;2023-04-04T03:49:07;97195.28;;;3.02;58.58
49044;BME280;34860;48.066;14.124;2023-04-04T03:52:05;97193.34;;;3.03;58.41
49044;BME280;34860;48.066;14.124;2023-04-04T03:59:14;97192.16;;;3.00;58.34
49044;BME280;34860;48.066;14.124;2023-04-04T04:02:27;97193.28;;;2.99;58.37
49044;BME280;34860;48.066;14.124;2023-04-04T04:05:29;97199.56;;;3.00;58.51
49044;BME280;34860;48.066;14.124;2023-04-04T04:08:17;97194.44;;;2.98;58.43
49044;BME280;34860;48.066;14.124;2023-04-04T04:11:06;97191.72;;;2.98;58.28
49044;BME280;34860;48.066;14.124;2023-04-04T04:13:54;97196.41;;;2.98;58.48
49044;BME280;34860;48.066;14.124;2023-04-04T04:16:45;97196.41;;;2.98;58.52
49044;BME280;34860;48.066;14.124;2023-04-04T04:19:39;97199.16;;;2.98;58.47
49044;BME280;34860;48.066;14.124;2023-04-04T04:22:27;97191.72;;;2.98;58.43
49044;BME280;34860;48.066;14.124;2023-04-04T04:25:16;97196.41;;;2.98;58.27
49044;BME280;34860;48.066;14.124;2023-04-04T04:28:15;97199.94;;;2.98;58.43
49044;BME280;34860;48.066;14.124;2023-04-04T04:31:04;97198.38;;;2.97;58.45
49044;BME280;34860;48.066;14.124;2023-04-04T04:33:59;97205.44;;;2.98;58.42
49044;BME280;34860;48.066;14.124;2023-04-04T04:36:49;97204.25;;;2.96;58.49
49044;BME280;34860;48.066;14.124;2023-04-04T04:39:43;97209.38;;;2.97;58.35
49044;BME280;34860;48.066;14.124;2023-04-04T04:42:43;97208.56;;;2.97;58.28
49044;BME280;34860;48.066;14.124;2023-04-04T04:45:35;97205.03;;;2.96;58.33
49044;BME280;34860;48.066;14.124;2023-04-04T04:48:26;97207.41;;;2.98;58.45
49044;BME280;34860;48.066;14.124;2023-04-04T04:51:18;97209.38;;;2.97;58.30
49044;BME280;34860;48.066;14.124;2023-04-04T04:54:11;97203.06;;;2.97;58.33
49044;BME280;34860;48.066;14.124;2023-04-04T04:57:00;97210.50;;;2.96;58.35
49044;BME280;34860;48.066;14.124;2023-04-04T04:59:48;97214.03;;;2.97;58.40
49044;BME280;34860;48.066;14.124;2023-04-04T05:02:37;97202.28;;;2.96;58.24
49044;BME280;34860;48.066;14.124;2023-04-04T05:05:25;97207.00;;;2.96;58.30
49044;BME280;34860;48.066;14.124;2023-04-04T05:08:22;97218.75;;;2.96;58.29
49044;BME280;34860;48.066;14.124;2023-04-04T05:11:24;97213.63;;;2.95;58.46
49044;BME280;34860;48.066;14.124;2023-04-04T05:14:13;97215.22;;;2.96;58.33
49044;BME280;34860;48.066;14.124;2023-04-04T05:17:14;97215.22;;;2.96;58.27
49044;BME280;34860;48.066;14.124;2023-04-04T05:20:03;97216.00;;;2.96;58.44
49044;BME280;34860;48.066;14.124;2023-04-04T05:22:52;97213.25;;;2.96;58.47
49044;BME280;34860;48.066;14.124;2023-04-04T05:25:51;97217.59;;;2.97;58.32
49044;BME280;34860;48.066;14.124;2023-04-04T05:28:41;97219.53;;;2.97;58.41
49044;BME280;34860;48.066;14.124;2023-04-04T05:31:30;97219.97;;;2.99;58.43
49044;BME280;34860;48.066;14.124;2023-04-04T05:34:24;97216.03;;;3.00;58.43
49044;BME280;34860;48.066;14.124;2023-04-04T05:37:16;97225.09;;;3.00;58.40
49044;BME280;34860;48.066;14.124;2023-04-04T05:40:08;97222.75;;;3.02;58.35
49044;BME280;34860;48.066;14.124;2023-04-04T05:42:58;97227.88;;;3.04;58.40
49044;BME280;34860;48.066;14.124;2023-04-04T05:45:53;97228.66;;;3.04;58.19
49044;BME280;34860;48.066;14.124;2023-04-04T05:48:42;97231.03;;;3.06;58.35
49044;BME280;34860;48.066;14.124;2023-04-04T05:51:31;97230.28;;;3.09;58.33
49044;BME280;34860;48.066;14.124;2023-04-04T05:54:26;97225.19;;;3.11;58.24
49044;BME280;34860;48.066;14.124;2023-04-04T05:57:20;97234.25;;;3.12;58.35
49044;BME280;34860;48.066;14.124;2023-04-04T06:00:17;97235.44;;;3.14;58.30
49044;BME280;34860;48.066;14.124;2023-04-04T06:03:13;97237.44;;;3.17;58.23
49044;BME280;34860;48.066;14.124;2023-04-04T06:06:03;97235.91;;;3.20;58.26
49044;BME280;34860;48.066;14.124;2023-04-04T06:08:52;97239.50;;;3.24;58.11
49044;BME280;34860;48.066;14.124;2023-04-04T06:11:40;97242.28;;;3.27;58.16
49044;BME280;34860;48.066;14.124;2023-04-04T06:14:31;97234.88;;;3.32;58.12
49044;BME280;34860;48.066;14.124;2023-04-04T06:17:24;97239.22;;;3.36;58.26
49044;BME280;34860;48.066;14.124;2023-04-04T06:20:13;97237.72;;;3.39;58.20
49044;BME280;34860;48.066;14.124;2023-04-04T06:23:02;97234.63;;;3.44;58.11
49044;BME280;34860;48.066;14.124;2023-04-04T06:25:54;97245.25;;;3.49;58.05
49044;BME280;34860;48.066;14.124;2023-04-04T06:28:46;97241.00;;;3.55;58.05
49044;BME280;34860;48.066;14.124;2023-04-04T06:31:46;97237.13;;;3.60;57.98
49044;BME280;34860;48.066;14.124;2023-04-04T06:34:43;97241.50;;;3.64;58.00
49044;BME280;34860;48.066;14.124;2023-04-04T06:37:34;97238.00;;;3.68;57.87
49044;BME280;34860;48.066;14.124;2023-04-04T06:40:31;97237.66;;;3.73;57.98
49044;BME280;34860;48.066;14.124;2023-04-04T06:43:19;97238.13;;;3.78;57.92
49044;BME280;34860;48.066;14.124;2023-04-04T06:46:08;97236.63;;;3.85;57.97
49044;BME280;34860;48.066;14.124;2023-04-04T06:48:57;97233.50;;;3.90;57.89
49044;BME280;34860;48.066;14.124;2023-04-04T06:51:47;97229.25;;;3.96;57.92
49044;BME280;34860;48.066;14.124;2023-04-04T06:54:36;97233.25;;;4.02;57.78
49044;BME280;34860;48.066;14.124;2023-04-04T06:57:24;97228.16;;;4.08;57.98
49044;BME280;34860;48.066;14.124;2023-04-04T07:00:15;97234.91;;;4.14;57.94
49044;BME280;34860;48.066;14.124;2023-04-04T07:03:04;97238.88;;;4.20;57.85
49044;BME280;34860;48.066;14.124;2023-04-04T07:05:53;97239.72;;;4.28;57.80
49044;BME280;34860;48.066;14.124;2023-04-04T07:08:43;97234.66;;;4.33;57.75
49044;BME280;34860;48.066;14.124;2023-04-04T07:11:32;97245.28;;;4.39;57.83
49044;BME280;34860;48.066;14.124;2023-04-04T07:14:21;97241.84;;;4.45;57.84
49044;BME280;34860;48.066;14.124;2023-04-04T07:17:11;97237.50;;;4.48;57.74
49044;BME280;34860;48.066;14.124;2023-04-04T07:20:03;97231.63;;;4.53;57.82
49044;BME280;34860;48.066;14.124;2023-04-04T07:22:53;97228.94;;;4.57;57.65
49044;BME280;34860;48.066;14.124;2023-04-04T07:25:44;97242.31;;;4.62;57.63
49044;BME280;34860;48.066;14.124;2023-04-04T07:28:36;97242.34;;;4.65;57.81
49044;BME280;34860;48.066;14.124;2023-04-04T07:31:25;97242.34;;;4.69;57.83
49044;BME280;34860;48.066;14.124;2023-04-04T07:34:14;97242.78;;;4.71;57.61
49044;BME280;34860;48.066;14.124;2023-04-04T07:37:02;97239.25;;;4.74;57.61
49044;BME280;34860;48.066;14.124;2023-04-04T07:39:51;97235.38;;;4.79;57.66
49044;BME280;34860;48.066;14.124;2023-04-04T07:42:44;97233.78;;;4.81;57.52
49044;BME280;34860;48.066;14.124;2023-04-04T07:45:32;97235.78;;;4.84;57.59
49044;BME280;34860;48.066;14.124;2023-04-04T07:48:20;97234.22;;;4.87;57.61
49044;BME280;34860;48.066;14.124;2023-04-04T07:51:08;97234.63;;;4.89;57.74
49044;BME280;34860;48.066;14.124;2023-04-04T07:53:56;97239.34;;;4.92;57.70
49044;BME280;34860;48.066;14.124;2023-04-04T07:56:44;97236.22;;;4.97;57.64
49044;BME280;34860;48.066;14.124;2023-04-04T07:59:35;97233.47;;;4.97;57.68
49044;BME280;34860;48.066;14.124;2023-04-04T08:02:23;97232.31;;;4.98;57.50
49044;BME280;34860;48.066;14.124;2023-04-04T08:05:11;97227.97;;;5.01;57.54
49044;BME280;34860;48.066;14.124;2023-04-04T08:07:59;97231.53;;;5.01;57.57
49044;BME280;34860;48.066;14.124;2023-04-04T08:10:50;97234.31;;;5.01;57.59
49044;BME280;34860;48.066;14.124;2023-04-04T08:13:38;97235.84;;;5.02;57.55
49044;BME280;34860;48.066;14.124;2023-04-04T08:16:27;97233.91;;;5.03;57.66
49044;BME280;34860;48.066;14.124;2023-04-04T08:19:18;97230.78;;;5.04;57.63
49044;BME280;34860;48.066;14.124;2023-04-04T08:22:09;97239.44;;;5.10;57.64
49044;BME280;34860;48.066;14.124;2023-04-04T08:24:57;97230.44;;;5.20;57.66
49044;BME280;34860;48.066;14.124;2023-04-04T08:27:46;97229.28;;;5.28;57.55
49044;BME280;34860;48.066;14.124;2023-04-04T08:30:37;97228.91;;;5.34;57.55
49044;BME280;34860;48.066;14.124;2023-04-04T08:33:30;97222.63;;;5.37;57.46
49044;BME280;34860;48.066;14.124;2023-04-04T08:36:23;97219.09;;;5.36;57.57
49044;BME280;34860;48.066;14.124;2023-04-04T08:39:11;97219.88;;;5.37;57.52
49044;BME280;34860;48.066;14.124;2023-04-04T08:42:01;97222.25;;;5.38;57.49
49044;BME280;34860;48.066;14.124;2023-04-04T08:44:52;97220.25;;;5.39;57.55
49044;BME280;34860;48.066;14.124;2023-04-04T08:47:43;97220.25;;;5.39;57.68
49044;BME280;34860;48.066;14.124;2023-04-04T08:50:36;97215.94;;;5.41;57.55
49044;BME280;34860;48.066;14.124;2023-04-04T08:53:27;97217.53;;;5.46;57.51
49044;BME280;34860;48.066;14.124;2023-04-04T08:56:17;97224.66;;;5.54;57.52
49044;BME280;34860;48.066;14.124;2023-04-04T08:59:05;97218.75;;;5.63;57.50
49044;BME280;34860;48.066;14.124;2023-04-04T09:02:03;97219.56;;;5.74;57.30
49044;BME280;34860;48.066;14.124;2023-04-04T09:04:52;97223.16;;;5.89;57.17
49044;BME280;34860;48.066;14.124;2023-04-04T09:07:50;97217.69;;;6.00;57.11
49044;BME280;34860;48.066;14.124;2023-04-04T09:10:40;97214.91;;;6.11;56.97
49044;BME280;34860;48.066;14.124;2023-04-04T09:13:30;97219.63;;;6.25;56.91
49044;BME280;34860;48.066;14.124;2023-04-04T09:16:18;97225.16;;;6.32;56.74
49044;BME280;34860;48.066;14.124;2023-04-04T09:19:06;97220.41;;;6.40;56.81
49044;BME280;34860;48.066;14.124;2023-04-04T09:21:54;97214.50;;;6.48;56.85
49044;BME280;34860;48.066;14.124;2023-04-04T09:24:46;97223.16;;;6.50;57.06
49044;BME280;34860;48.066;14.124;2023-04-04T09:27:36;97222.78;;;6.59;56.91
49044;BME280;34860;48.066;14.124;2023-04-04T09:30:25;97230.25;;;6.69;56.94
49044;BME280;34860;48.066;14.124;2023-04-04T09:33:14;97229.41;;;6.87;56.85
49044;BME280;34860;48.066;14.124;2023-04-04T09:36:06;97227.41;;;7.05;56.76
49044;BME280;34860;48.066;14.124;2023-04-04T09:38:55;97223.78;;;7.23;56.54
49044;BME280;34860;48.066;14.124;2023-04-04T09:41:46;97225.31;;;7.35;56.51
49044;BME280;34860;48.066;14.124;2023-04-04T09:44:35;97231.97;;;7.44;56.45
49044;BME280;34860;48.066;14.124;2023-04-04T09:47:24;97223.28;;;7.46;56.47
49044;BME280;34860;48.066;14.124;2023-04-04T09:50:20;97231.19;;;7.44;56.64
49044;BME280;34860;48.066;14.124;2023-04-04T09:53:15;97233.59;;;7.35;56.88
49044;BME280;34860;48.066;14.124;2023-04-04T09:56:05;97238.78;;;7.25;57.09
49044;BME280;34860;48.066;14.124;2023-04-04T09:58:54;97239.59;;;7.19;57.24
49044;BME280;34860;48.066;14.124;2023-04-04T10:01:53;97237.22;;;7.21;57.24
49044;BME280;34860;48.066;14.124;2023-04-04T10:04:41;97238.41;;;7.23;57.25
49044;BME280;34860;48.066;14.124;2023-04-04T10:07:37;97242.75;;;7.21;57.23
49044;BME280;34860;48.066;14.124;2023-04-04T10:10:26;97234.44;;;7.24;57.15
49044;BME280;34860;48.066;14.124;2023-04-04T10:13:24;97235.19;;;7.32;57.09
49044;BME280;34860;48.066;14.124;2023-04-04T10:16:15;97234.38;;;7.39;57.06
49044;BME280;34860;48.066;14.124;2023-04-04T10:19:06;97227.63;;;7.43;56.97
49044;BME280;34860;48.066;14.124;2023-04-04T10:21:55;97232.34;;;7.46;56.81
49044;BME280;34860;48.066;14.124;2023-04-04T10:24:44;97231.19;;;7.48;56.70
49044;BME280;34860;48.066;14.124;2023-04-04T10:27:33;97227.59;;;7.51;56.73
49044;BME280;34860;48.066;14.124;2023-04-04T10:30:23;97233.91;;;7.51;56.74
49044;BME280;34860;48.066;14.124;2023-04-04T10:33:21;97227.97;;;7.53;56.62
49044;BME280;34860;48.066;14.124;2023-04-04T10:36:11;97225.22;;;7.56;56.68
49044;BME280;34860;48.066;14.124;2023-04-04T10:39:03;97222.44;;;7.60;56.74
49044;BME280;34860;48.066;14.124;2023-04-04T10:41:57;97222.41;;;7.63;56.57
49044;BME280;34860;48.066;14.124;2023-04-04T10:44:46;97221.97;;;7.69;56.53
49044;BME280;34860;48.066;14.124;2023-04-04T10:47:35;97212.09;;;7.71;56.58
49044;BME280;34860;48.066;14.124;2023-04-04T10:50:27;97206.53;;;7.75;56.50
49044;BME280;34860;48.066;14.124;2023-04-04T10:53:18;97204.50;;;7.82;56.52
49044;BME280;34860;48.066;14.124;2023-04-04T10:56:07;97199.28;;;7.95;56.39
49044;BME280;34860;48.066;14.124;2023-04-04T10:59:11;97201.91;;;8.13;56.20
49044;BME280;34860;48.066;14.124;2023-04-04T11:02:01;97195.09;;;8.25;56.13
49044;BME280;34860;48.066;14.124;2023-04-04T11:05:09;97196.13;;;8.46;55.96
49044;BME280;34860;48.066;14.124;2023-04-04T11:08:02;97200.28;;;8.68;55.83
49044;BME280;34860;48.066;14.124;2023-04-04T11:10:55;97203.22;;;8.88;55.71
49044;BME280;34860;48.066;14.124;2023-04-04T11:13:58;97201.91;;;9.00;55.65
49044;BME280;34860;48.066;14.124;2023-04-04T11:16:46;97202.63;;;9.08;55.77
49044;BME280;34860;48.066;14.124;2023-04-04T11:19:38;97196.28;;;9.07;55.83
49044;BME280;34860;48.066;14.124;2023-04-04T11:22:44;97196.38;;;9.00;55.99
49044;BME280;34860;48.066;14.124;2023-04-04T11:25:37;97187.00;;;8.87;56.23
49044;BME280;34860;48.066;14.124;2023-04-04T11:28:42;97189.91;;;8.72;56.39
49044;BME280;34860;48.066;14.124;2023-04-04T11:31:32;97184.88;;;8.64;56.50
49044;BME280;34860;48.066;14.124;2023-04-04T11:34:31;97180.97;;;8.58;56.59
49044;BME280;34860;48.066;14.124;2023-04-04T11:37:20;97180.59;;;8.56;56.61
49044;BME280;34860;48.066;14.124;2023-04-04T11:40:10;97172.72;;;8.54;56.60
49044;BME280;34860;48.066;14.124;2023-04-04T11:43:08;97180.97;;;8.58;56.38
49044;BME280;34860;48.066;14.124;2023-04-04T11:46:04;97174.22;;;8.62;56.63
49044;BME280;34860;48.066;14.124;2023-04-04T11:48:56;97172.19;;;8.66;56.26
49044;BME280;34860;48.066;14.124;2023-04-04T11:51:44;97175.28;;;8.72;56.19
49044;BME280;34860;48.066;14.124;2023-04-04T11:54:35;97168.94;;;8.75;56.18
49044;BME280;34860;48.066;14.124;2023-04-04T11:57:24;97169.28;;;8.81;56.03
49044;BME280;34860;48.066;14.124;2023-04-04T12:00:27;97169.53;;;8.94;55.93
49044;BME280;34860;48.066;14.124;2023-04-04T12:03:16;97162.63;;;9.05;55.85
49044;BME280;34860;48.066;14.124;2023-04-04T12:06:05;97160.47;;;9.20;55.42
49044;BME280;34860;48.066;14.124;2023-04-04T12:08:56;97160.63;;;9.40;55.57
49044;BME280;34860;48.066;14.124;2023-04-04T12:11:45;97157.09;;;9.63;55.50
49044;BME280;34860;48.066;14.124;2023-04-04T12:14:34;97157.16;;;9.87;55.24
49044;BME280;34860;48.066;14.124;2023-04-04T12:17:29;97151.38;;;10.02;55.14
49044;BME280;34860;48.066;14.124;2023-04-04T12:20:21;97156.44;;;10.07;55.11
49044;BME280;34860;48.066;14.124;2023-04-04T12:23:09;97153.63;;;10.10;55.23
49044;BME280;34860;48.066;14.124;2023-04-04T12:25:58;97150.78;;;10.14;55.33
49044;BME280;34860;48.066;14.124;2023-04-04T12:28:50;97144.88;;;10.12;55.25
49044;BME280;34860;48.066;14.124;2023-04-04T12:31:43;97148.13;;;10.07;55.50
49044;BME280;34860;48.066;14.124;2023-04-04T12:34:41;97146.31;;;9.96;55.51
49044;BME280;34860;48.066;14.124;2023-04-04T12:37:30;97141.03;;;9.78;55.92
49044;BME280;34860;48.066;14.124;2023-04-04T12:40:19;97140.50;;;9.60;56.19
49044;BME280;34860;48.066;14.124;2023-04-04T12:43:08;97130.94;;;9.37;56.30
49044;BME280;34860;48.066;14.124;2023-04-04T12:45:56;97134.31;;;9.21;56.73
49044;BME280;34860;48.066;14.124;2023-04-04T12:48:47;97128.84;;;9.14;56.44
49044;BME280;34860;48.066;14.124;2023-04-04T12:51:37;97121.34;;;9.15;56.52
49044;BME280;34860;48.066;14.124;2023-04-04T12:54:26;97123.97;;;9.25;56.27
49044;BME280;34860;48.066;14.124;2023-04-04T12:57:17;97124.50;;;9.44;55.93
49044;BME280;34860;48.066;14.124;2023-04-04T13:00:06;97119.47;;;9.62;55.60
49044;BME280;34860;48.066;14.124;2023-04-04T13:02:56;97126.34;;;9.78;55.42
49044;BME280;34860;48.066;14.124;2023-04-04T13:05:45;97122.22;;;9.90;55.13
49044;BME280;34860;48.066;14.124;2023-04-04T13:08:34;97126.53;;;9.94;55.14
49044;BME280;34860;48.066;14.124;2023-04-04T13:11:23;97121.75;;;9.95;55.22
49044;BME280;34860;48.066;14.124;2023-04-04T13:14:16;97114.50;;;10.01;55.30
49044;BME280;34860;48.066;14.124;2023-04-04T13:17:05;97113.16;;;10.09;55.09
49044;BME280;34860;48.066;14.124;2023-04-04T13:19:56;97105.00;;;10.22;55.11
49044;BME280;34860;48.066;14.124;2023-04-04T13:22:45;97112.34;;;10.36;54.96
49044;BME280;34860;48.066;14.124;2023-04-04T13:25:35;97102.25;;;10.46;54.78
49044;BME280;34860;48.066;14.124;2023-04-04T13:28:24;97104.09;;;10.52;54.86
49044;BME280;34860;48.066;14.124;2023-04-04T13:31:12;97095.75;;;10.52;54.89
49044;BME280;34860;48.066;14.124;2023-04-04T13:34:01;97104.25;;;10.45;54.86
49044;BME280;34860;48.066;14.124;2023-04-04T13:36:49;97091.78;;;10.30;55.07
49044;BME280;34860;48.066;14.124;2023-04-04T13:39:37;97094.75;;;10.19;55.31
49044;BME280;34860;48.066;14.124;2023-04-04T13:42:27;97099.28;;;10.09;55.39
49044;BME280;34860;48.066;14.124;2023-04-04T13:45:17;97097.06;;;10.00;55.47
49044;BME280;34860;48.066;14.124;2023-04-04T13:48:06;97094.81;;;9.92;55.49
49044;BME280;34860;48.066;14.124;2023-04-04T13:50:55;97096.50;;;9.86;55.40
49044;BME280;34860;48.066;14.124;2023-04-04T13:53:43;97101.22;;;9.89;55.35
49044;BME280;34860;48.066;14.124;2023-04-04T13:56:31;97091.13;;;9.98;55.28
49044;BME280;34860;48.066;14.124;2023-04-04T13:59:23;97090.28;;;10.25;54.81
49044;BME280;34860;48.066;14.124;2023-04-04T14:02:11;97094.13;;;10.55;54.64
49044;BME280;34860;48.066;14.124;2023-04-04T14:04:59;97092.41;;;10.81;54.33
49044;BME280;34860;48.066;14.124;2023-04-04T14:07:51;97093.13;;;11.05;54.19
49044;BME280;34860;48.066;14.124;2023-04-04T14:10:39;97095.97;;;11.22;54.02
49044;BME280;34860;48.066;14.124;2023-04-04T14:13:27;97088.69;;;11.28;54.01
49044;BME280;34860;48.066;14.124;2023-04-04T14:16:17;97089.88;;;11.27;54.17
49044;BME280;34860;48.066;14.124;2023-04-04T14:19:05;97093.88;;;11.26;54.34
49044;BME280;34860;48.066;14.124;2023-04-04T14:21:53;97090.31;;;11.25;54.42
49044;BME280;34860;48.066;14.124;2023-04-04T14:24:42;97097.25;;;11.17;54.53
49044;BME280;34860;48.066;14.124;2023-04-04T14:27:30;97092.34;;;11.05;54.91
49044;BME280;34860;48.066;14.124;2023-04-04T14:30:18;97093.28;;;10.98;54.72
49044;BME280;34860;48.066;14.124;2023-04-04T14:33:09;97096.56;;;10.93;54.79
49044;BME280;34860;48.066;14.124;2023-04-04T14:35:57;97102.19;;;10.89;54.72
49044;BME280;34860;48.066;14.124;2023-04-04T14:38:45;97101.41;;;10.89;54.51
49044;BME280;34860;48.066;14.124;2023-04-04T14:41:33;97099.56;;;10.82;54.67
49044;BME280;34860;48.066;14.124;2023-04-04T14:44:21;97092.16;;;10.76;54.50
49044;BME280;34860;48.066;14.124;2023-04-04T14:47:13;97098.25;;;10.67;54.54
49044;BME280;34860;48.066;14.124;2023-04-04T14:50:02;97099.28;;;10.57;54.60
49044;BME280;34860;48.066;14.124;2023-04-04T14:52:50;97094.63;;;10.50;54.65
49044;BME280;34860;48.066;14.124;2023-04-04T14:55:38;97096.75;;;10.42;54.70
49044;BME280;34860;48.066;14.124;2023-04-04T14:58:28;97092.53;;;10.34;54.63
49044;BME280;34860;48.066;14.124;2023-04-04T15:01:16;97089.50;;;10.25;54.72
49044;BME280;34860;48.066;14.124;2023-04-04T15:04:08;97090.03;;;10.16;54.73
49044;BME280;34860;48.066;14.124;2023-04-04T15:06:59;97089.88;;;10.03;54.75
49044;BME280;34860;48.066;14.124;2023-04-04T15:09:48;97085.38;;;9.89;54.87
49044;BME280;34860;48.066;14.124;2023-04-04T15:12:39;97080.75;;;9.79;54.90
49044;BME280;34860;48.066;14.124;2023-04-04T15:15:29;97085.22;;;9.73;54.91